TimeCDT,TemperatureF,Dew PointF,Humidity,Sea Level PressureIn,VisibilityMPH,Wind Direction,Wind SpeedMPH,Gust SpeedMPH,PrecipitationIn,Events,Conditions,WindDirDegrees,DateUTC
12:53 AM,73.0,61.0,66,29.64,10.0,South,19.6,28.8,N/A,,Overcast,190,2012-10-25 05:53:00
1:53 AM,72.0,60.1,66,29.65,10.0,South,11.5,20.7,N/A,,Overcast,190,2012-10-25 06:53:00
2:53 AM,70.0,60.1,71,29.61,10.0,South,16.1,23.0,N/A,,Clear,180,2012-10-25 07:53:00
3:53 AM,70.0,60.1,71,29.60,10.0,South,18.4,25.3,N/A,,Overcast,180,2012-10-25 08:53:00
4:53 AM,70.0,60.1,71,29.59,10.0,South,16.1,26.5,N/A,,Overcast,190,2012-10-25 09:53:00
5:03 AM,69.8,60.8,73,29.62,10.0,South,18.4,25.3,N/A,,Overcast,190,2012-10-25 10:03:00
5:53 AM,69.1,61.0,75,29.60,10.0,SSW,15.0,21.9,N/A,,Overcast,200,2012-10-25 10:53:00
6:29 AM,55.4,53.6,94,29.64,4.0,WNW,15.0,-,0.03,Rain-Thunderstorm,Light Thunderstorms and Rain,300,2012-10-25 11:29:00
6:45 AM,53.6,51.8,94,29.66,5.0,WNW,15.0,-,0.03,,Overcast,290,2012-10-25 11:45:00
6:53 AM,53.1,51.1,93,29.65,5.0,WNW,15.0,-,0.03,,Overcast,300,2012-10-25 11:53:00
7:00 AM,51.8,50.0,94,29.67,6.0,WNW,15.0,-,N/A,,Overcast,300,2012-10-25 12:00:00
7:08 AM,51.8,50.0,94,29.67,8.0,NW,16.1,-,N/A,,Overcast,310,2012-10-25 12:08:00
8:21 AM,46.4,44.6,93,29.72,7.0,NW,13.8,25.3,N/A,Thunderstorm,Overcast,320,2012-10-25 13:21:00
8:36 AM,46.4,42.8,87,29.73,9.0,NNW,18.4,-,0.00,Rain,Light Rain,330,2012-10-25 13:36:00
8:53 AM,45.0,42.1,90,29.75,2.5,NNW,18.4,26.5,0.02,Rain,Light Rain,340,2012-10-25 13:53:00
9:03 AM,44.6,42.8,93,29.77,4.0,NNW,13.8,24.2,0.01,Rain,Light Rain,340,2012-10-25 14:03:00
9:37 AM,42.8,39.2,87,29.78,7.0,NNW,21.9,34.5,0.02,Rain,Light Rain,330,2012-10-25 14:37:00
9:53 AM,43.0,39.0,86,29.79,8.0,NNW,21.9,29.9,0.03,Rain,Light Rain,330,2012-10-25 14:53:00
10:06 AM,42.8,39.2,87,29.81,8.0,NW,24.2,29.9,0.00,Rain,Light Rain,320,2012-10-25 15:06:00
10:20 AM,41.0,37.4,87,29.82,10.0,NW,20.7,31.1,0.00,Rain,Light Rain,320,2012-10-25 15:20:00
10:27 AM,41.0,37.4,87,29.83,10.0,NNW,21.9,28.8,0.00,Rain,Light Rain,330,2012-10-25 15:27:00
10:53 AM,42.1,37.9,85,29.85,10.0,NNW,15.0,25.3,0.00,,Overcast,330,2012-10-25 15:53:00
11:53 AM,42.1,37.0,82,29.90,10.0,NNW,18.4,35.7,N/A,,Overcast,330,2012-10-25 16:53:00
12:53 PM,39.9,37.0,89,29.92,8.0,NW,27.6,33.4,N/A,,Overcast,320,2012-10-25 17:53:00
1:53 PM,41.0,37.0,86,29.96,9.0,NW,23.0,28.8,N/A,,Overcast,320,2012-10-25 18:53:00
2:10 PM,41.0,37.4,87,29.97,10.0,NNW,20.7,29.9,N/A,,Overcast,330,2012-10-25 19:10:00
2:53 PM,43.0,36.0,76,29.99,10.0,NNW,24.2,31.1,N/A,,Overcast,330,2012-10-25 19:53:00
3:53 PM,45.0,35.1,68,30.02,10.0,NNW,19.6,27.6,N/A,,Mostly Cloudy,340,2012-10-25 20:53:00
4:53 PM,43.0,34.0,71,30.07,10.0,NW,24.2,29.9,N/A,,Mostly Cloudy,320,2012-10-25 21:53:00
5:53 PM,39.9,32.0,73,30.13,10.0,NW,23.0,27.6,N/A,,Overcast,320,2012-10-25 22:53:00
6:53 PM,39.9,30.9,70,30.16,10.0,NNW,18.4,28.8,N/A,,Overcast,330,2012-10-25 23:53:00
7:53 PM,39.0,28.9,67,30.22,10.0,NNW,17.3,28.8,N/A,,Overcast,340,2012-10-26 00:53:00
8:53 PM,37.9,28.0,68,30.25,10.0,NNW,20.7,25.3,N/A,,Overcast,340,2012-10-26 01:53:00
9:53 PM,37.9,28.0,68,30.27,10.0,NNW,12.7,-,N/A,,Overcast,330,2012-10-26 02:53:00
10:53 PM,37.0,26.1,65,30.30,10.0,North,13.8,26.5,N/A,,Overcast,350,2012-10-26 03:53:00
11:53 PM,37.0,27.0,67,30.32,10.0,NNW,13.8,25.3,N/A,,Overcast,340,2012-10-26 04:53:00